createdAt,value
2019-05-17T00:01:08.764Z,6.73
2019-05-17T00:03:37.609Z,6.87
2019-05-17T00:06:06.677Z,7.80
2019-05-17T00:08:38.084Z,6.17
2019-05-17T00:11:06.782Z,6.33
2019-05-17T00:13:35.479Z,7.53
2019-05-17T00:16:04.090Z,7.70
2019-05-17T00:18:34.196Z,6.60
2019-05-17T00:21:02.719Z,7.10
2019-05-17T00:23:31.116Z,7.40
2019-05-17T00:25:59.633Z,6.43
2019-05-17T00:28:28.225Z,7.53
2019-05-17T00:30:58.436Z,6.63
2019-05-17T00:33:27.327Z,6.50
2019-05-17T00:35:56.300Z,7.23
2019-05-17T00:38:27.224Z,7.10
2019-05-17T00:40:56.481Z,6.17
2019-05-17T00:43:26.240Z,7.07
2019-05-17T00:45:57.502Z,7.57
2019-05-17T00:48:26.526Z,6.23
2019-05-17T00:51:01.234Z,6.80
2019-05-17T00:53:26.857Z,7.17
2019-05-17T00:55:57.356Z,6.50
2019-05-17T00:58:26.364Z,6.37
2019-05-17T01:00:57.123Z,7.20
2019-05-17T01:03:26.924Z,5.80
2019-05-17T01:05:56.718Z,7.40
2019-05-17T01:08:26.580Z,6.90
2019-05-17T01:10:56.628Z,6.63
2019-05-17T01:13:26.707Z,7.17
2019-05-17T01:15:56.614Z,7.53
2019-05-17T01:18:26.903Z,7.23
2019-05-17T01:20:56.818Z,6.40
2019-05-17T01:23:27.124Z,6.50
2019-05-17T01:25:56.702Z,6.73
2019-05-17T01:28:26.922Z,6.53
2019-05-17T01:30:56.958Z,7.47
2019-05-17T01:33:26.579Z,6.47
2019-05-17T01:35:57.235Z,5.67
2019-05-17T01:38:26.926Z,6.80
2019-05-17T01:40:56.420Z,6.87
2019-05-17T01:43:27.189Z,6.30
2019-05-17T01:45:57.409Z,6.80
2019-05-17T01:48:27.039Z,6.63
2019-05-17T01:50:56.837Z,6.00
2019-05-17T01:53:27.031Z,6.70
2019-05-17T01:55:56.793Z,6.33
2019-05-17T01:58:26.940Z,6.57
2019-05-17T02:00:57.413Z,6.00
2019-05-17T02:03:26.791Z,6.17
2019-05-17T02:05:56.599Z,6.80
2019-05-17T02:08:26.538Z,6.57
2019-05-17T02:10:57.417Z,6.93
2019-05-17T02:13:26.938Z,6.97
2019-05-17T02:15:56.453Z,6.30
2019-05-17T02:18:26.591Z,6.67
2019-05-17T02:20:57.097Z,6.77
2019-05-17T02:23:27.012Z,6.03
2019-05-17T02:25:57.197Z,7.10
2019-05-17T02:28:26.078Z,6.07
2019-05-17T02:30:54.493Z,6.30
2019-05-17T02:33:23.672Z,6.67
2019-05-17T02:35:53.621Z,6.10
2019-05-17T02:38:22.524Z,5.80
2019-05-17T02:40:53.587Z,5.97
2019-05-17T02:43:23.597Z,6.90
2019-05-17T02:45:52.925Z,6.93
2019-05-17T02:48:23.303Z,6.73
2019-05-17T02:50:53.228Z,6.60
2019-05-17T02:53:23.003Z,7.23
2019-05-17T02:55:53.910Z,5.93
2019-05-17T02:58:23.284Z,6.90
2019-05-17T03:00:53.211Z,6.77
2019-05-17T03:03:23.741Z,6.63
2019-05-17T03:05:53.618Z,7.70
2019-05-17T03:08:23.489Z,7.67
2019-05-17T03:10:53.813Z,7.37
2019-05-17T03:13:23.359Z,8.23
2019-05-17T03:15:52.777Z,6.87
2019-05-17T03:18:22.978Z,7.00
2019-05-17T03:20:52.869Z,6.70
2019-05-17T03:23:23.375Z,8.00
2019-05-17T03:25:52.623Z,8.20
2019-05-17T03:28:23.468Z,6.63
2019-05-17T03:30:56.283Z,6.60
2019-05-17T03:33:26.441Z,7.00
2019-05-17T03:35:57.037Z,7.50
2019-05-17T03:38:25.780Z,6.20
2019-05-17T03:41:09.369Z,6.80
2019-05-17T03:43:24.620Z,6.27
2019-05-17T03:45:53.458Z,7.13
2019-05-17T03:48:22.309Z,7.07
2019-05-17T03:50:53.143Z,6.00
2019-05-17T03:53:22.898Z,6.83
2019-05-17T03:55:54.089Z,6.10
2019-05-17T03:58:23.517Z,6.30
2019-05-17T04:00:53.466Z,6.70
2019-05-17T04:03:23.710Z,6.67
2019-05-17T04:05:52.990Z,8.13
2019-05-17T04:08:22.909Z,7.23
2019-05-17T04:10:53.022Z,8.60
2019-05-17T04:13:23.466Z,7.00
2019-05-17T04:15:53.113Z,7.83
2019-05-17T04:18:23.421Z,7.93
2019-05-17T04:20:52.997Z,6.73
2019-05-17T04:23:23.265Z,6.07
2019-05-17T04:25:53.088Z,8.27
2019-05-17T04:28:23.146Z,8.17
2019-05-17T04:30:52.820Z,7.53
2019-05-17T04:33:23.325Z,7.53
2019-05-17T04:35:54.040Z,7.23
2019-05-17T04:38:23.553Z,7.90
2019-05-17T04:40:53.766Z,9.20
2019-05-17T04:43:23.185Z,8.40
2019-05-17T04:45:53.956Z,8.53
2019-05-17T04:48:23.403Z,8.00
2019-05-17T04:50:53.658Z,8.13
2019-05-17T04:53:24.481Z,8.60
2019-05-17T04:55:53.969Z,9.30
2019-05-17T04:58:23.395Z,8.60
2019-05-17T05:00:53.783Z,8.97
2019-05-17T05:03:23.288Z,9.30
2019-05-17T05:05:53.487Z,9.67
2019-05-17T05:08:22.624Z,9.90
2019-05-17T05:10:53.411Z,10.90
2019-05-17T05:13:23.186Z,9.60
2019-05-17T05:15:52.300Z,9.03
2019-05-17T05:18:22.101Z,9.83
2019-05-17T05:20:52.676Z,8.90
2019-05-17T05:23:23.827Z,8.63
2019-05-17T05:25:52.218Z,9.07
2019-05-17T05:28:22.488Z,9.20
2019-05-17T05:30:52.759Z,8.70
2019-05-17T05:33:22.140Z,8.13
2019-05-17T05:35:51.702Z,7.53
2019-05-17T05:38:21.711Z,8.60
2019-05-17T05:40:52.139Z,8.50
2019-05-17T05:43:22.609Z,8.63
2019-05-17T05:45:53.450Z,8.53
2019-05-17T05:48:21.795Z,6.90
2019-05-17T05:50:52.107Z,9.33
2019-05-17T05:53:21.835Z,8.43
2019-05-17T05:55:51.812Z,7.90
2019-05-17T05:58:23.591Z,7.93
2019-05-17T06:00:53.164Z,7.67
2019-05-17T06:03:22.528Z,7.90
2019-05-17T06:05:52.510Z,8.67
2019-05-17T06:08:22.766Z,7.70
2019-05-17T06:10:53.062Z,7.93
2019-05-17T06:13:21.991Z,8.10
2019-05-17T06:15:51.782Z,7.77
2019-05-17T06:18:22.703Z,8.93
2019-05-17T06:20:52.367Z,9.10
2019-05-17T06:23:23.250Z,7.57
2019-05-17T06:25:52.163Z,8.43
2019-05-17T06:28:22.299Z,10.60
2019-05-17T06:30:52.684Z,11.10
2019-05-17T06:33:30.445Z,9.60
2019-05-17T06:35:52.547Z,7.43
2019-05-17T06:38:22.444Z,7.43
2019-05-17T06:40:52.359Z,7.83
2019-05-17T06:43:21.500Z,8.43
2019-05-17T06:45:52.177Z,8.00
2019-05-17T06:48:22.572Z,7.00
2019-05-17T06:50:51.935Z,7.77
2019-05-17T06:53:21.950Z,7.97
2019-05-17T06:55:50.760Z,7.97
2019-05-17T06:58:19.285Z,6.73
2019-05-17T07:00:49.808Z,8.60
2019-05-17T07:03:19.892Z,7.00
2019-05-17T07:05:50.535Z,6.10
2019-05-17T07:08:20.162Z,7.13
2019-05-17T07:10:50.263Z,6.80
2019-05-17T07:13:19.818Z,5.90
2019-05-17T07:15:50.938Z,6.37
2019-05-17T07:18:19.623Z,6.47
2019-05-17T07:20:50.172Z,5.90
2019-05-17T07:23:19.702Z,5.90
2019-05-17T07:25:50.419Z,6.20
2019-05-17T07:28:19.910Z,5.43
2019-05-17T07:30:50.412Z,5.33
2019-05-17T07:33:20.067Z,5.03
2019-05-17T07:35:50.186Z,7.27
2019-05-17T07:38:19.943Z,7.10
2019-05-17T07:40:50.142Z,8.10
2019-05-17T07:43:20.821Z,6.63
2019-05-17T07:45:50.771Z,8.27
2019-05-17T07:48:19.958Z,7.33
2019-05-17T07:50:50.435Z,8.63
2019-05-17T07:53:20.184Z,9.83
2019-05-17T07:55:50.646Z,8.30
2019-05-17T07:58:21.391Z,11.00
2019-05-17T08:00:51.638Z,9.03
2019-05-17T08:03:20.985Z,7.77
2019-05-17T08:05:50.652Z,13.30
2019-05-17T08:08:20.766Z,8.53
2019-05-17T08:10:51.070Z,6.30
2019-05-17T08:13:27.309Z,6.43
2019-05-17T08:15:50.234Z,7.93
2019-05-17T08:18:20.357Z,5.93
2019-05-17T08:20:50.138Z,7.43
2019-05-17T08:23:20.176Z,6.93
2019-05-17T08:25:54.713Z,7.17
2019-05-17T08:28:21.373Z,6.70
2019-05-17T08:30:50.279Z,5.67
2019-05-17T08:33:19.462Z,6.10
2019-05-17T08:35:49.447Z,5.83
2019-05-17T08:38:19.741Z,5.80
2019-05-17T08:40:50.743Z,5.40
2019-05-17T08:43:21.107Z,6.33
2019-05-17T08:45:50.178Z,6.73
2019-05-17T08:48:20.606Z,6.60
2019-05-17T08:50:51.019Z,5.87
2019-05-17T08:53:21.239Z,6.30
2019-05-17T08:55:50.234Z,7.37
2019-05-17T08:58:21.560Z,7.33
2019-05-17T09:00:51.049Z,5.63
2019-05-17T09:03:19.746Z,5.97
2019-05-17T09:05:52.606Z,5.63
2019-05-17T09:08:20.640Z,6.20
2019-05-17T09:10:50.486Z,5.73
2019-05-17T09:13:19.671Z,6.00
2019-05-17T09:15:49.402Z,6.50
2019-05-17T09:18:20.416Z,6.27
2019-05-17T09:20:49.515Z,4.83
2019-05-17T09:23:19.998Z,6.00
2019-05-17T09:25:50.123Z,6.27
2019-05-17T09:28:20.466Z,6.10
2019-05-17T09:30:50.949Z,4.93
2019-05-17T09:33:19.453Z,4.43
2019-05-17T09:35:50.031Z,4.90
2019-05-17T09:38:20.407Z,4.23
2019-05-17T09:40:50.458Z,4.80
2019-05-17T09:43:20.481Z,4.60
2019-05-17T09:45:50.686Z,4.40
2019-05-17T09:48:19.718Z,4.80
2019-05-17T09:50:50.425Z,4.70
2019-05-17T09:53:20.151Z,4.00
2019-05-17T09:55:49.775Z,4.60
2019-05-17T09:58:21.395Z,3.97
2019-05-17T10:00:49.542Z,5.10
2019-05-17T10:03:23.962Z,4.33
2019-05-17T10:05:50.475Z,4.23
2019-05-17T10:08:19.017Z,3.80
2019-05-17T10:11:00.983Z,4.10
2019-05-17T10:13:20.113Z,3.60
2019-05-17T10:15:50.223Z,3.57
2019-05-17T10:18:20.020Z,3.80
2019-05-17T10:20:50.636Z,3.50
2019-05-17T10:23:19.744Z,3.20
2019-05-17T10:25:49.015Z,3.70
2019-05-17T10:28:17.759Z,4.27
2019-05-17T10:30:46.574Z,3.10
2019-05-17T10:33:15.223Z,3.77
2019-05-17T10:35:43.781Z,3.77
2019-05-17T10:38:12.877Z,4.10
2019-05-17T10:40:41.463Z,3.57
2019-05-17T10:43:10.516Z,3.10
2019-05-17T10:45:40.169Z,3.50
2019-05-17T10:48:10.263Z,3.80
2019-05-17T10:50:40.787Z,3.27
2019-05-17T10:53:10.208Z,3.73
2019-05-17T10:55:41.023Z,24.10
2019-05-17T10:58:10.338Z,4.60
2019-05-17T11:00:41.441Z,3.83
2019-05-17T11:03:10.140Z,4.70
2019-05-17T11:05:40.234Z,3.07
2019-05-17T11:08:10.666Z,7.30
2019-05-17T11:10:39.638Z,3.67
2019-05-17T11:13:08.356Z,4.50
2019-05-17T11:15:36.959Z,3.97
2019-05-17T11:18:05.887Z,3.83
2019-05-17T11:20:34.389Z,5.37
2019-05-17T11:23:03.091Z,3.77
2019-05-17T11:25:37.129Z,3.00
2019-05-17T11:28:05.758Z,4.20
2019-05-17T11:30:34.386Z,3.00
2019-05-17T11:33:03.252Z,3.73
2019-05-17T11:35:32.418Z,2.90
2019-05-17T11:38:01.631Z,4.20
2019-05-17T11:40:30.193Z,3.80
2019-05-17T11:42:58.894Z,3.40
2019-05-17T11:45:32.286Z,3.87
2019-05-17T11:47:59.678Z,3.57
2019-05-17T11:50:29.378Z,3.20
2019-05-17T11:52:58.260Z,3.63
2019-05-17T11:55:32.396Z,3.67
2019-05-17T11:58:03.217Z,4.03
2019-05-17T12:00:31.779Z,4.77
2019-05-17T12:03:00.719Z,4.07
2019-05-17T12:05:29.521Z,3.50
2019-05-17T12:07:58.070Z,3.20
2019-05-17T12:10:26.621Z,3.20
2019-05-17T12:12:55.243Z,3.83
2019-05-17T12:15:23.965Z,3.60
2019-05-17T12:17:52.421Z,4.13
2019-05-17T12:20:22.100Z,3.20
2019-05-17T12:22:50.696Z,3.50
2019-05-17T12:25:24.445Z,6.10
2019-05-17T12:27:54.002Z,3.83
2019-05-17T12:30:22.604Z,4.40
2019-05-17T12:32:51.234Z,4.03
2019-05-17T12:35:21.228Z,3.27
2019-05-17T12:37:50.016Z,3.90
2019-05-17T12:40:18.720Z,2.97
2019-05-17T12:42:47.247Z,3.53
2019-05-17T12:45:15.951Z,2.83
2019-05-17T12:47:44.414Z,3.30
2019-05-17T12:50:12.951Z,3.40
2019-05-17T12:52:41.538Z,3.70
2019-05-17T12:55:10.426Z,3.30
2019-05-17T12:57:38.960Z,3.10
2019-05-17T13:00:08.158Z,2.90
2019-05-17T13:02:36.747Z,3.10
2019-05-17T13:05:05.180Z,2.93
2019-05-17T13:07:33.664Z,3.17
2019-05-17T13:10:02.157Z,2.60
2019-05-17T13:12:30.871Z,3.00
2019-05-17T13:14:59.299Z,3.20
2019-05-17T13:17:28.498Z,2.90
2019-05-17T13:19:57.039Z,4.60
2019-05-17T13:22:25.499Z,3.77
2019-05-17T13:24:54.074Z,3.50
2019-05-17T13:27:22.569Z,3.80
2019-05-17T13:29:51.108Z,3.40
2019-05-17T13:32:20.220Z,3.20
2019-05-17T13:34:48.637Z,2.63
2019-05-17T13:37:17.163Z,4.00
2019-05-17T13:39:45.574Z,3.07
2019-05-17T13:42:14.050Z,3.67
2019-05-17T13:44:42.455Z,3.33
2019-05-17T13:47:11.591Z,2.77
2019-05-17T13:49:41.840Z,3.20
2019-05-17T13:52:12.081Z,3.03
2019-05-17T13:54:40.589Z,2.90
2019-05-17T13:57:11.375Z,2.13
2019-05-17T13:59:39.494Z,2.47
2019-05-17T14:02:10.075Z,2.70
2019-05-17T14:04:38.509Z,5.80
2019-05-17T14:07:06.990Z,2.87
2019-05-17T14:09:35.509Z,2.93
2019-05-17T14:12:04.531Z,2.60
2019-05-17T14:14:32.968Z,2.87
2019-05-17T14:17:01.466Z,2.20
2019-05-17T14:19:31.602Z,2.57
2019-05-17T14:22:00.076Z,3.00
2019-05-17T14:24:28.751Z,3.00
2019-05-17T14:26:57.174Z,3.30
2019-05-17T14:29:25.714Z,2.40
2019-05-17T14:31:54.265Z,5.17
2019-05-17T14:34:22.720Z,3.17
2019-05-17T14:36:51.419Z,4.20
2019-05-17T14:39:19.818Z,4.07
2019-05-17T14:41:48.377Z,2.90
2019-05-17T14:44:17.120Z,2.97
2019-05-17T14:46:45.663Z,2.90
2019-05-17T14:49:14.075Z,3.77
2019-05-17T14:51:42.714Z,2.63
2019-05-17T14:54:11.203Z,2.70
2019-05-17T14:56:39.657Z,3.27
2019-05-17T14:59:08.108Z,3.07
2019-05-17T15:01:36.618Z,3.77
2019-05-17T15:04:05.353Z,4.67
2019-05-17T15:06:35.124Z,5.60
2019-05-17T15:09:05.474Z,5.10
2019-05-17T15:11:34.193Z,4.13
2019-05-17T15:14:02.732Z,15.77
2019-05-17T15:16:32.300Z,15.87
2019-05-17T15:19:01.120Z,14.67
2019-05-17T15:21:30.620Z,24.43
2019-05-17T15:23:59.304Z,5.60
2019-05-17T15:26:27.916Z,5.27
2019-05-17T15:29:01.345Z,3.83
2019-05-17T15:31:30.205Z,4.00
2019-05-17T15:33:58.857Z,4.07
2019-05-17T15:36:27.588Z,4.97
2019-05-17T15:38:56.092Z,3.90
2019-05-17T15:41:24.900Z,3.97
2019-05-17T15:43:53.606Z,4.60
2019-05-17T15:46:22.363Z,5.10
2019-05-17T15:48:51.390Z,4.90
2019-05-17T15:51:19.967Z,4.70
2019-05-17T15:53:48.403Z,4.40
2019-05-17T15:56:17.279Z,4.50
2019-05-17T15:58:46.634Z,3.27
2019-05-17T16:01:17.106Z,3.70
2019-05-17T16:03:46.614Z,5.30
2019-05-17T16:06:15.226Z,4.00
2019-05-17T16:08:44.161Z,6.53
2019-05-17T16:11:12.737Z,4.00
2019-05-17T16:13:41.277Z,5.00
2019-05-17T16:16:10.049Z,4.97
2019-05-17T16:18:38.846Z,3.77
2019-05-17T16:21:07.311Z,5.40
2019-05-17T16:23:36.329Z,4.13
2019-05-17T16:26:05.110Z,3.90
2019-05-17T16:28:34.018Z,3.70
2019-05-17T16:31:03.086Z,3.60
2019-05-17T16:33:32.134Z,3.83
2019-05-17T16:36:00.605Z,4.43
2019-05-17T16:38:29.071Z,5.83
2019-05-17T16:40:57.515Z,6.07
2019-05-17T16:43:26.050Z,4.97
2019-05-17T16:45:54.446Z,4.50
2019-05-17T16:48:22.870Z,13.37
2019-05-17T16:50:51.445Z,4.60
2019-05-17T16:53:19.921Z,5.30
2019-05-17T16:55:49.164Z,3.60
2019-05-17T16:58:17.549Z,3.77
2019-05-17T17:00:47.825Z,4.00
2019-05-17T17:03:16.304Z,4.33
2019-05-17T17:05:44.790Z,5.40
2019-05-17T17:08:13.823Z,6.70
2019-05-17T17:10:44.476Z,6.27
2019-05-17T17:13:12.978Z,5.10
2019-05-17T17:15:41.595Z,6.80
2019-05-17T17:18:11.399Z,5.27
2019-05-17T17:20:39.925Z,4.17
2019-05-17T17:23:08.520Z,13.67
2019-05-17T17:25:46.707Z,24.90
2019-05-17T17:28:15.130Z,20.67
2019-05-17T17:30:43.524Z,7.33
2019-05-17T17:33:12.699Z,7.60
2019-05-17T17:35:41.305Z,5.60
2019-05-17T17:38:09.894Z,8.67
2019-05-17T17:40:39.529Z,7.27
2019-05-17T17:43:08.602Z,6.40
2019-05-17T17:45:38.260Z,5.57
2019-05-17T17:48:06.692Z,8.33
2019-05-17T17:50:35.217Z,7.00
2019-05-17T17:53:05.492Z,7.50
2019-05-17T17:55:35.980Z,7.03
2019-05-17T17:58:06.087Z,6.17
2019-05-17T18:00:35.136Z,5.60
2019-05-17T18:03:03.823Z,5.80
2019-05-17T18:05:32.239Z,5.50
2019-05-17T18:08:00.625Z,5.47
2019-05-17T18:10:31.538Z,4.70
2019-05-17T18:13:00.294Z,5.43
2019-05-17T18:15:38.524Z,5.67
2019-05-17T18:18:07.599Z,5.90
2019-05-17T18:20:36.261Z,6.53
2019-05-17T18:23:05.408Z,7.50
2019-05-17T18:25:40.992Z,7.90
2019-05-17T18:28:12.947Z,7.70
2019-05-17T18:30:41.708Z,7.57
2019-05-17T18:33:10.326Z,7.23
2019-05-17T18:35:39.512Z,6.50
2019-05-17T18:38:08.593Z,5.70
2019-05-17T18:40:37.206Z,6.30
2019-05-17T18:43:07.117Z,5.93
2019-05-17T18:45:37.639Z,7.33
2019-05-17T18:48:06.658Z,6.70
2019-05-17T18:50:35.321Z,7.10
2019-05-17T18:53:04.567Z,6.37
2019-05-17T18:55:35.940Z,6.90
2019-05-17T18:58:05.163Z,6.10
2019-05-17T19:00:33.645Z,5.60
2019-05-17T19:03:02.422Z,6.30
2019-05-17T19:05:30.952Z,6.20
2019-05-17T19:07:59.445Z,6.73
2019-05-17T19:10:27.950Z,6.57
2019-05-17T19:12:56.841Z,6.40
2019-05-17T19:15:25.229Z,7.57
2019-05-17T19:17:54.109Z,7.93
2019-05-17T19:20:22.509Z,7.97
2019-05-17T19:22:51.944Z,7.13
2019-05-17T19:25:20.589Z,6.50
2019-05-17T19:27:49.803Z,7.23
2019-05-17T19:30:18.517Z,6.60
2019-05-17T19:32:47.047Z,7.07
2019-05-17T19:35:15.970Z,7.33
2019-05-17T19:37:44.386Z,7.23
2019-05-17T19:40:13.402Z,8.83
2019-05-17T19:42:41.908Z,6.90
2019-05-17T19:45:13.600Z,6.33
2019-05-17T19:47:41.973Z,7.23
2019-05-17T19:50:12.285Z,7.63
2019-05-17T19:52:40.767Z,6.80
2019-05-17T19:55:11.071Z,8.23
2019-05-17T19:57:39.618Z,7.53
2019-05-17T20:00:11.053Z,7.70
2019-05-17T20:02:39.635Z,8.30
2019-05-17T20:05:09.022Z,8.40
2019-05-17T20:07:39.215Z,7.73
2019-05-17T20:10:08.481Z,8.20
2019-05-17T20:12:37.296Z,7.90
2019-05-17T20:15:16.801Z,7.70
2019-05-17T20:17:37.228Z,8.43
2019-05-17T20:20:05.673Z,7.83
2019-05-17T20:22:34.694Z,8.10
2019-05-17T20:25:03.312Z,9.00
2019-05-17T20:27:32.039Z,7.60
2019-05-17T20:30:00.536Z,8.60
2019-05-17T20:32:29.167Z,8.77
2019-05-17T20:34:57.669Z,8.47
2019-05-17T20:37:26.969Z,7.87
2019-05-17T20:39:55.719Z,9.20
2019-05-17T20:42:24.305Z,9.00
2019-05-17T20:44:52.729Z,9.70
2019-05-17T20:47:21.221Z,9.20
2019-05-17T20:49:49.741Z,8.90
2019-05-17T20:52:18.232Z,9.60
2019-05-17T20:54:46.637Z,8.80
2019-05-17T20:57:15.172Z,8.70
2019-05-17T20:59:43.672Z,10.00
2019-05-17T21:02:12.468Z,8.57
2019-05-17T21:04:40.869Z,8.97
2019-05-17T21:07:09.396Z,9.13
2019-05-17T21:09:37.907Z,8.90
2019-05-17T21:12:06.327Z,9.10
2019-05-17T21:14:34.713Z,7.87
2019-05-17T21:17:03.154Z,9.57
2019-05-17T21:19:32.749Z,10.70
2019-05-17T21:22:01.236Z,9.60
2019-05-17T21:24:29.746Z,8.67
2019-05-17T21:26:58.208Z,8.57
2019-05-17T21:29:26.675Z,8.10
2019-05-17T21:31:55.146Z,8.80
2019-05-17T21:34:23.768Z,8.30
2019-05-17T21:36:52.261Z,8.60
2019-05-17T21:39:21.057Z,8.00
2019-05-17T21:41:50.563Z,8.60
2019-05-17T21:44:19.085Z,9.50
2019-05-17T21:47:03.423Z,7.63
2019-05-17T21:49:17.870Z,8.50
2019-05-17T21:51:46.695Z,8.20
2019-05-17T21:54:15.203Z,9.83
2019-05-17T21:56:44.010Z,9.10
2019-05-17T21:59:12.872Z,8.47
2019-05-17T22:01:42.673Z,8.63
2019-05-17T22:04:11.191Z,9.07
2019-05-17T22:06:39.656Z,8.00
2019-05-17T22:09:08.317Z,9.13
2019-05-17T22:11:39.050Z,8.07
2019-05-17T22:14:07.546Z,7.70
2019-05-17T22:16:35.923Z,8.90
2019-05-17T22:19:04.428Z,8.00
2019-05-17T22:21:34.711Z,9.00
2019-05-17T22:24:03.136Z,9.07
2019-05-17T22:26:31.642Z,8.40
2019-05-17T22:29:00.052Z,8.70
2019-05-17T22:31:28.486Z,9.37
2019-05-17T22:33:57.095Z,8.10
2019-05-17T22:36:25.609Z,8.40
2019-05-17T22:38:54.223Z,8.10
2019-05-17T22:41:23.664Z,8.60
2019-05-17T22:43:52.066Z,8.80
2019-05-17T22:46:35.003Z,9.03
2019-05-17T22:48:50.817Z,8.17
2019-05-17T22:51:19.285Z,7.83
2019-05-17T22:53:47.799Z,7.70
2019-05-17T22:56:16.483Z,8.30
2019-05-17T22:58:45.017Z,8.30
2019-05-17T23:01:13.417Z,7.53
2019-05-17T23:03:41.838Z,7.97
2019-05-17T23:06:10.353Z,9.20
2019-05-17T23:08:38.757Z,8.70
2019-05-17T23:11:07.245Z,8.30
2019-05-17T23:13:35.660Z,8.70
2019-05-17T23:16:06.711Z,8.20
2019-05-17T23:18:35.356Z,8.23
2019-05-17T23:21:04.309Z,8.80
2019-05-17T23:23:32.881Z,7.80
2019-05-17T23:26:01.316Z,8.57
2019-05-17T23:28:29.803Z,8.57
2019-05-17T23:30:58.326Z,9.40
2019-05-17T23:33:26.725Z,7.90
2019-05-17T23:35:55.150Z,8.80
2019-05-17T23:38:23.654Z,8.40
2019-05-17T23:40:52.066Z,8.00
2019-05-17T23:43:20.515Z,8.57
2019-05-17T23:45:48.908Z,8.43
2019-05-17T23:48:17.312Z,9.10
2019-05-17T23:50:45.705Z,8.87
2019-05-17T23:53:14.133Z,8.57
2019-05-17T23:55:46.255Z,8.47
2019-05-17T23:58:15.314Z,7.90
